createdAt,value
2018-09-20T00:00:51.964Z,18.39
2018-09-20T00:01:51.963Z,18.38
2018-09-20T00:02:51.956Z,18.41
2018-09-20T00:03:51.948Z,18.50
2018-09-20T00:04:51.939Z,18.39
2018-09-20T00:05:51.933Z,18.44
2018-09-20T00:06:51.926Z,18.34
2018-09-20T00:07:51.919Z,18.56
2018-09-20T00:08:51.919Z,18.47
2018-09-20T00:09:51.908Z,18.38
2018-09-20T00:10:51.908Z,18.47
2018-09-20T00:11:51.901Z,18.41
2018-09-20T00:12:51.888Z,18.28
2018-09-20T00:13:51.883Z,18.31
2018-09-20T00:14:51.876Z,18.29
2018-09-20T00:15:51.875Z,18.34
2018-09-20T00:16:51.872Z,18.35
2018-09-20T00:17:51.856Z,18.32
2018-09-20T00:18:51.851Z,18.34
2018-09-20T00:19:51.845Z,18.34
2018-09-20T00:20:51.841Z,18.31
2018-09-20T00:21:51.837Z,18.29
2018-09-20T00:22:51.825Z,18.20
2018-09-20T00:23:51.819Z,18.21
2018-09-20T00:24:51.813Z,18.23
2018-09-20T00:25:51.808Z,18.20
2018-09-20T00:26:51.806Z,18.21
2018-09-20T00:27:51.794Z,18.25
2018-09-20T00:28:51.791Z,18.16
2018-09-20T00:29:51.780Z,18.20
2018-09-20T00:30:51.781Z,18.21
2018-09-20T00:31:51.774Z,18.25
2018-09-20T00:32:51.762Z,18.14
2018-09-20T00:33:51.755Z,18.07
2018-09-20T00:34:51.755Z,18.17
2018-09-20T00:35:51.746Z,18.11
2018-09-20T00:36:51.738Z,18.11
2018-09-20T00:37:51.734Z,18.05
2018-09-20T00:38:51.723Z,18.09
2018-09-20T00:39:51.723Z,18.01
2018-09-20T00:40:51.710Z,18.02
2018-09-20T00:41:51.703Z,17.95
2018-09-20T00:42:51.697Z,17.95
2018-09-20T00:43:51.696Z,17.95
2018-09-20T00:44:51.684Z,17.94
2018-09-20T00:45:51.680Z,17.92
2018-09-20T00:46:51.674Z,18.02
2018-09-20T00:47:51.667Z,17.89
2018-09-20T00:48:51.663Z,17.89
2018-09-20T00:49:51.649Z,17.96
2018-09-20T00:50:51.643Z,17.84
2018-09-20T00:51:51.644Z,17.91
2018-09-20T00:52:51.631Z,17.91
2018-09-20T00:53:51.624Z,17.80
2018-09-20T00:54:51.621Z,17.83
2018-09-20T00:55:51.618Z,17.87
2018-09-20T00:56:51.606Z,17.76
2018-09-20T00:57:51.601Z,17.80
2018-09-20T00:58:51.596Z,17.94
2018-09-20T00:59:51.586Z,17.92
2018-09-20T01:00:51.580Z,18.02
2018-09-20T01:01:51.576Z,18.01
2018-09-20T01:02:51.566Z,18.02
2018-09-20T01:03:51.559Z,18.13
2018-09-20T01:04:51.552Z,18.25
2018-09-20T01:05:51.551Z,18.29
2018-09-20T01:06:51.541Z,18.38
2018-09-20T01:07:51.533Z,18.39
2018-09-20T01:08:51.527Z,18.39
2018-09-20T01:09:51.525Z,18.36
2018-09-20T01:10:51.519Z,18.36
2018-09-20T01:11:51.507Z,18.39
2018-09-20T01:12:51.501Z,18.32
2018-09-20T01:13:51.496Z,18.34
2018-09-20T01:14:51.492Z,18.26
2018-09-20T01:15:51.483Z,18.31
2018-09-20T01:16:51.475Z,18.21
2018-09-20T01:17:51.470Z,18.17
2018-09-20T01:18:51.467Z,18.20
2018-09-20T01:19:51.454Z,18.21
2018-09-20T01:20:51.448Z,18.29
2018-09-20T01:21:51.444Z,18.21
2018-09-20T01:22:51.441Z,18.29
2018-09-20T01:23:51.430Z,18.23
2018-09-20T01:24:51.422Z,18.11
2018-09-20T01:25:51.419Z,18.14
2018-09-20T01:26:51.411Z,18.14
2018-09-20T01:27:51.401Z,18.07
2018-09-20T01:28:51.400Z,18.05
2018-09-20T01:29:51.392Z,18.01
2018-09-20T01:30:51.381Z,17.96
2018-09-20T01:31:51.380Z,18.02
2018-09-20T01:32:51.371Z,18.04
2018-09-20T01:33:51.360Z,18.04
2018-09-20T01:34:51.359Z,18.14
2018-09-20T01:35:51.351Z,18.10
2018-09-20T01:36:51.344Z,17.98
2018-09-20T01:37:51.341Z,17.96
2018-09-20T01:38:51.331Z,17.95
2018-09-20T01:39:51.324Z,17.96
2018-09-20T01:40:51.321Z,17.95
2018-09-20T01:41:51.306Z,17.91
2018-09-20T01:42:51.302Z,17.96
2018-09-20T01:43:51.295Z,18.01
2018-09-20T01:44:51.295Z,18.02
2018-09-20T01:45:51.283Z,17.91
2018-09-20T01:46:51.274Z,18.02
2018-09-20T01:47:51.270Z,17.87
2018-09-20T01:48:51.262Z,17.96
2018-09-20T01:49:51.258Z,17.99
2018-09-20T01:50:51.247Z,17.92
2018-09-20T01:51:51.245Z,17.94
2018-09-20T01:52:51.233Z,17.89
2018-09-20T01:53:51.226Z,17.80
2018-09-20T01:54:51.223Z,17.79
2018-09-20T01:55:51.219Z,17.79
2018-09-20T01:56:51.207Z,17.87
2018-09-20T01:57:51.202Z,17.79
2018-09-20T01:58:51.193Z,17.91
2018-09-20T01:59:51.192Z,17.84
2018-09-20T02:00:51.179Z,17.71
2018-09-20T02:01:51.177Z,17.77
2018-09-20T02:02:51.168Z,17.77
2018-09-20T02:03:51.166Z,17.74
2018-09-20T02:04:51.155Z,17.73
2018-09-20T02:05:51.148Z,17.66
2018-09-20T02:06:51.140Z,17.66
2018-09-20T02:07:51.132Z,17.65
2018-09-20T02:08:51.128Z,17.66
2018-09-20T02:09:51.124Z,17.49
2018-09-20T02:10:51.117Z,17.55
2018-09-20T02:11:51.103Z,17.49
2018-09-20T02:12:51.098Z,17.53
2018-09-20T02:13:51.095Z,17.42
2018-09-20T02:14:51.088Z,17.38
2018-09-20T02:15:51.077Z,17.42
2018-09-20T02:16:51.071Z,17.39
2018-09-20T02:17:51.068Z,17.28
2018-09-20T02:18:51.061Z,17.40
2018-09-20T02:19:51.048Z,17.43
2018-09-20T02:20:51.043Z,17.36
2018-09-20T02:21:51.034Z,17.32
2018-09-20T02:22:51.029Z,17.46
2018-09-20T02:23:51.027Z,17.30
2018-09-20T02:24:51.018Z,17.30
2018-09-20T02:25:51.011Z,17.28
2018-09-20T02:26:51.001Z,17.22
2018-09-20T02:27:50.995Z,17.24
2018-09-20T02:28:50.991Z,17.24
2018-09-20T02:29:50.985Z,17.36
2018-09-20T02:30:50.973Z,17.28
2018-09-20T02:31:50.966Z,17.25
2018-09-20T02:32:50.959Z,17.38
2018-09-20T02:33:50.951Z,17.25
2018-09-20T02:34:50.944Z,17.47
2018-09-20T02:35:50.944Z,17.42
2018-09-20T02:36:50.950Z,17.40
2018-09-20T02:37:50.924Z,17.46
2018-09-20T02:38:50.920Z,17.39
2018-09-20T02:39:50.909Z,17.36
2018-09-20T02:40:50.906Z,17.24
2018-09-20T02:41:50.905Z,17.40
2018-09-20T02:42:50.895Z,17.32
2018-09-20T02:43:50.885Z,17.24
2018-09-20T02:44:50.879Z,17.30
2018-09-20T02:45:50.875Z,17.27
2018-09-20T02:46:50.866Z,17.32
2018-09-20T02:47:50.862Z,17.24
2018-09-20T02:48:50.850Z,17.18
2018-09-20T02:49:50.840Z,17.25
2018-09-20T02:50:50.834Z,17.10
2018-09-20T02:51:50.827Z,17.14
2018-09-20T02:52:50.823Z,17.07
2018-09-20T02:53:50.817Z,17.20
2018-09-20T02:54:50.804Z,17.17
2018-09-20T02:55:50.798Z,17.18
2018-09-20T02:56:50.790Z,17.25
2018-09-20T02:57:50.782Z,17.17
2018-09-20T02:58:50.841Z,17.20
2018-09-20T02:59:50.778Z,17.03
2018-09-20T03:00:50.763Z,17.10
2018-09-20T03:01:50.760Z,17.10
2018-09-20T03:02:50.751Z,17.09
2018-09-20T03:03:50.747Z,17.00
2018-09-20T03:04:50.734Z,17.03
2018-09-20T03:05:50.726Z,16.99
2018-09-20T03:06:50.723Z,16.98
2018-09-20T03:07:50.716Z,17.05
2018-09-20T03:08:50.706Z,17.07
2018-09-20T03:09:50.704Z,17.14
2018-09-20T03:10:50.696Z,17.09
2018-09-20T03:11:50.684Z,17.09
2018-09-20T03:12:50.688Z,17.21
2018-09-20T03:13:50.675Z,17.25
2018-09-20T03:14:50.668Z,17.25
2018-09-20T03:15:50.658Z,17.20
2018-09-20T03:16:50.648Z,17.15
2018-09-20T03:17:50.641Z,17.18
2018-09-20T03:18:50.639Z,17.14
2018-09-20T03:19:50.630Z,17.07
2018-09-20T03:20:50.631Z,17.10
2018-09-20T03:21:50.615Z,17.10
2018-09-20T03:22:50.604Z,17.12
2018-09-20T03:23:50.598Z,16.99
2018-09-20T03:24:50.591Z,17.02
2018-09-20T03:25:50.586Z,17.05
2018-09-20T03:26:50.576Z,16.95
2018-09-20T03:27:50.578Z,16.99
2018-09-20T03:28:50.570Z,16.92
2018-09-20T03:29:50.561Z,16.90
2018-09-20T03:30:50.652Z,16.87
2018-09-20T03:31:50.543Z,16.90
2018-09-20T03:32:50.541Z,16.91
2018-09-20T03:33:50.532Z,16.96
2018-09-20T03:34:50.523Z,17.05
2018-09-20T03:35:50.511Z,16.95
2018-09-20T03:36:50.504Z,16.96
2018-09-20T03:37:50.498Z,16.96
2018-09-20T03:38:50.491Z,17.09
2018-09-20T03:39:50.482Z,16.98
2018-09-20T03:40:50.474Z,17.00
2018-09-20T03:41:50.469Z,16.91
2018-09-20T03:42:50.462Z,16.87
2018-09-20T03:43:50.457Z,16.84
2018-09-20T03:44:50.453Z,16.82
2018-09-20T03:45:50.436Z,16.80
2018-09-20T03:46:50.433Z,16.78
2018-09-20T03:47:50.422Z,16.73
2018-09-20T03:48:50.425Z,16.73
2018-09-20T03:49:50.413Z,16.77
2018-09-20T03:50:50.404Z,16.72
2018-09-20T03:51:50.399Z,16.82
2018-09-20T03:52:50.386Z,16.95
2018-09-20T03:53:50.384Z,16.88
2018-09-20T03:54:50.371Z,16.91
2018-09-20T03:55:50.370Z,16.96
2018-09-20T03:56:50.364Z,17.09
2018-09-20T03:57:50.349Z,17.03
2018-09-20T03:58:50.343Z,16.91
2018-09-20T03:59:50.341Z,16.91
2018-09-20T04:00:50.331Z,16.90
2018-09-20T04:01:50.324Z,16.90
2018-09-20T04:02:50.319Z,16.96
2018-09-20T04:03:50.307Z,16.99
2018-09-20T04:04:50.304Z,16.92
2018-09-20T04:05:50.292Z,16.92
2018-09-20T04:06:50.290Z,16.92
2018-09-20T04:07:50.283Z,16.92
2018-09-20T04:08:50.274Z,16.88
2018-09-20T04:09:50.396Z,16.96
2018-09-20T04:10:50.255Z,16.85
2018-09-20T04:11:50.254Z,16.80
2018-09-20T04:12:50.250Z,16.81
2018-09-20T04:13:50.232Z,16.81
2018-09-20T04:14:50.227Z,16.70
2018-09-20T04:15:50.219Z,16.67
2018-09-20T04:16:50.217Z,16.81
2018-09-20T04:17:50.210Z,16.77
2018-09-20T04:18:50.205Z,16.70
2018-09-20T04:19:50.201Z,16.59
2018-09-20T04:20:50.191Z,16.67
2018-09-20T04:21:50.174Z,16.65
2018-09-20T04:22:50.170Z,16.65
2018-09-20T04:23:50.164Z,16.63
2018-09-20T04:24:50.159Z,16.66
2018-09-20T04:25:50.148Z,16.65
2018-09-20T04:26:50.147Z,16.69
2018-09-20T04:27:50.131Z,16.66
2018-09-20T04:28:50.131Z,16.72
2018-09-20T04:29:50.122Z,16.82
2018-09-20T04:30:50.108Z,16.87
2018-09-20T04:31:50.123Z,16.80
2018-09-20T04:32:50.098Z,16.87
2018-09-20T04:33:50.087Z,16.84
2018-09-20T04:34:50.092Z,16.84
2018-09-20T04:35:50.072Z,16.84
2018-09-20T04:36:50.068Z,16.88
2018-09-20T04:37:50.058Z,16.80
2018-09-20T04:38:50.055Z,16.75
2018-09-20T04:39:50.048Z,16.72
2018-09-20T04:40:50.042Z,16.72
2018-09-20T04:41:50.032Z,16.65
2018-09-20T04:42:50.020Z,16.67
2018-09-20T04:43:50.016Z,16.52
2018-09-20T04:44:50.006Z,16.65
2018-09-20T04:45:50.003Z,16.59
2018-09-20T04:46:49.996Z,16.54
2018-09-20T04:47:49.983Z,16.54
2018-09-20T04:48:49.978Z,16.54
2018-09-20T04:49:49.967Z,16.47
2018-09-20T04:50:49.960Z,16.51
2018-09-20T04:51:49.958Z,16.54
2018-09-20T04:52:49.945Z,16.59
2018-09-20T04:53:49.944Z,16.59
2018-09-20T04:54:49.930Z,16.54
2018-09-20T04:55:49.923Z,16.54
2018-09-20T04:56:49.915Z,16.50
2018-09-20T04:57:49.908Z,16.54
2018-09-20T04:58:49.906Z,16.52
2018-09-20T04:59:49.898Z,16.52
2018-09-20T05:00:49.884Z,16.59
2018-09-20T05:01:49.880Z,16.51
2018-09-20T05:02:49.870Z,16.63
2018-09-20T05:03:49.863Z,16.65
2018-09-20T05:04:49.859Z,16.80
2018-09-20T05:05:49.848Z,16.72
2018-09-20T05:06:49.847Z,16.75
2018-09-20T05:07:49.835Z,16.81
2018-09-20T05:08:49.830Z,16.80
2018-09-20T05:09:49.818Z,16.80
2018-09-20T05:10:49.814Z,16.70
2018-09-20T05:11:49.804Z,16.82
2018-09-20T05:12:49.803Z,16.85
2018-09-20T05:13:49.787Z,16.84
2018-09-20T05:14:49.780Z,16.87
2018-09-20T05:15:49.772Z,16.82
2018-09-20T05:16:49.764Z,16.84
2018-09-20T05:17:49.761Z,16.78
2018-09-20T05:18:49.750Z,16.77
2018-09-20T05:19:49.742Z,16.81
2018-09-20T05:20:49.736Z,16.84
2018-09-20T05:21:49.725Z,16.80
2018-09-20T05:22:49.718Z,16.77
2018-09-20T05:23:49.711Z,16.69
2018-09-20T05:24:49.709Z,16.77
2018-09-20T05:25:49.700Z,16.73
2018-09-20T05:26:49.691Z,16.70
2018-09-20T05:27:49.681Z,16.77
2018-09-20T05:28:49.679Z,16.81
2018-09-20T05:29:49.668Z,16.70
2018-09-20T05:30:49.660Z,16.77
2018-09-20T05:31:49.656Z,16.77
2018-09-20T05:32:49.643Z,16.75
2018-09-20T05:33:49.639Z,16.75
2018-09-20T05:34:49.649Z,16.70
2018-09-20T05:35:49.623Z,16.69
2018-09-20T05:36:49.613Z,16.80
2018-09-20T05:37:49.604Z,16.75
2018-09-20T05:38:49.603Z,16.60
2018-09-20T05:39:49.592Z,16.63
2018-09-20T05:40:49.584Z,16.72
2018-09-20T05:41:49.574Z,16.66
2018-09-20T05:42:49.578Z,16.78
2018-09-20T05:43:49.565Z,16.85
2018-09-20T05:44:49.555Z,16.88
2018-09-20T05:45:49.547Z,16.87
2018-09-20T05:46:49.542Z,17.00
2018-09-20T05:47:49.536Z,16.99
2018-09-20T05:48:49.527Z,16.84
2018-09-20T05:49:49.520Z,16.96
2018-09-20T05:50:49.515Z,16.98
2018-09-20T05:51:49.504Z,16.92
2018-09-20T05:52:49.493Z,16.95
2018-09-20T05:53:49.488Z,17.06
2018-09-20T05:54:49.482Z,16.96
2018-09-20T05:55:49.474Z,16.96
2018-09-20T05:56:49.466Z,17.09
2018-09-20T05:57:49.461Z,17.06
2018-09-20T05:58:49.451Z,16.98
2018-09-20T05:59:49.446Z,17.06
2018-09-20T06:00:49.434Z,17.12
2018-09-20T06:01:49.429Z,17.09
2018-09-20T06:02:49.421Z,17.02
2018-09-20T06:03:49.412Z,17.07
2018-09-20T06:04:49.410Z,17.07
2018-09-20T06:05:49.419Z,17.06
2018-09-20T06:06:49.394Z,17.17
2018-09-20T06:07:49.385Z,17.07
2018-09-20T06:08:49.381Z,17.22
2018-09-20T06:09:49.371Z,17.28
2018-09-20T06:10:49.366Z,17.24
2018-09-20T06:11:49.354Z,17.33
2018-09-20T06:12:49.347Z,17.28
2018-09-20T06:13:49.343Z,17.24
2018-09-20T06:14:49.330Z,17.30
2018-09-20T06:15:49.332Z,17.28
2018-09-20T06:16:49.319Z,17.46
2018-09-20T06:17:49.308Z,17.49
2018-09-20T06:18:49.301Z,17.53
2018-09-20T06:19:49.294Z,17.57
2018-09-20T06:20:49.330Z,17.65
2018-09-20T06:21:49.332Z,17.65
2018-09-20T06:22:49.279Z,17.74
2018-09-20T06:23:49.272Z,17.76
2018-09-20T06:24:49.263Z,17.84
2018-09-20T06:25:49.258Z,17.86
2018-09-20T06:26:49.252Z,18.01
2018-09-20T06:27:49.306Z,18.14
2018-09-20T06:28:49.235Z,18.17
2018-09-20T06:29:49.225Z,18.20
2018-09-20T06:30:49.219Z,18.35
2018-09-20T06:31:49.213Z,18.35
2018-09-20T06:32:49.206Z,18.54
2018-09-20T06:33:49.198Z,18.56
2018-09-20T06:34:49.233Z,18.60
2018-09-20T06:35:49.187Z,18.64
2018-09-20T06:36:49.223Z,18.72
2018-09-20T06:37:49.176Z,18.72
2018-09-20T06:38:49.176Z,18.86
2018-09-20T06:39:49.160Z,18.91
2018-09-20T06:40:49.171Z,19.02
2018-09-20T06:41:49.151Z,19.06
2018-09-20T06:42:49.146Z,19.02
2018-09-20T06:43:49.340Z,19.06
2018-09-20T06:44:49.134Z,19.05
2018-09-20T06:45:49.121Z,19.07
2018-09-20T06:46:49.120Z,19.21
2018-09-20T06:47:49.115Z,19.24
2018-09-20T06:48:49.104Z,19.31
2018-09-20T06:49:49.097Z,19.34
2018-09-20T06:50:49.096Z,19.31
2018-09-20T06:51:49.084Z,19.46
2018-09-20T06:52:49.079Z,19.52
2018-09-20T06:53:49.078Z,19.52
2018-09-20T06:54:49.067Z,19.62
2018-09-20T06:55:49.066Z,19.62
2018-09-20T06:56:49.056Z,19.67
2018-09-20T06:57:49.052Z,19.72
2018-09-20T06:58:49.043Z,19.82
2018-09-20T06:59:49.043Z,19.86
2018-09-20T07:00:49.032Z,19.90
2018-09-20T07:01:49.033Z,19.95
2018-09-20T07:02:49.029Z,20.02
2018-09-20T07:03:49.014Z,20.04
2018-09-20T07:04:49.012Z,20.12
2018-09-20T07:05:49.004Z,20.10
2018-09-20T07:06:48.998Z,20.13
2018-09-20T07:07:48.991Z,20.04
2018-09-20T07:08:48.987Z,20.05
2018-09-20T07:09:48.983Z,19.95
2018-09-20T07:10:48.974Z,19.94
2018-09-20T07:11:48.974Z,19.92
2018-09-20T07:12:48.971Z,20.01
2018-09-20T07:13:49.009Z,19.94
2018-09-20T07:14:48.955Z,19.94
2018-09-20T07:15:48.948Z,19.87
2018-09-20T07:16:48.947Z,19.86
2018-09-20T07:17:48.942Z,19.90
2018-09-20T07:18:48.930Z,20.05
2018-09-20T07:19:48.930Z,20.02
2018-09-20T07:20:48.922Z,20.13
2018-09-20T07:21:48.914Z,20.12
2018-09-20T07:22:48.915Z,20.17
2018-09-20T07:23:48.905Z,20.15
2018-09-20T07:24:48.898Z,20.27
2018-09-20T07:25:48.893Z,20.15
2018-09-20T07:26:48.892Z,20.17
2018-09-20T07:27:48.884Z,20.25
2018-09-20T07:28:48.880Z,20.22
2018-09-20T07:29:48.877Z,20.31
2018-09-20T07:30:48.871Z,20.34
2018-09-20T07:31:48.863Z,20.38
2018-09-20T07:32:48.877Z,20.48
2018-09-20T07:33:48.852Z,20.51
2018-09-20T07:34:48.844Z,20.63
2018-09-20T07:35:48.839Z,20.60
2018-09-20T07:36:48.837Z,20.64
2018-09-20T07:37:48.826Z,20.63
2018-09-20T07:38:48.826Z,20.85
2018-09-20T07:39:48.816Z,20.83
2018-09-20T07:40:48.819Z,20.97
2018-09-20T07:41:48.809Z,20.98
2018-09-20T07:42:48.801Z,21.00
2018-09-20T07:43:48.799Z,21.15
2018-09-20T07:44:48.794Z,21.08
2018-09-20T07:45:48.789Z,21.18
2018-09-20T07:46:48.780Z,21.24
2018-09-20T07:47:48.781Z,21.38
2018-09-20T07:48:48.772Z,21.40
2018-09-20T07:49:48.774Z,21.37
2018-09-20T07:50:48.768Z,21.52
2018-09-20T07:51:48.763Z,21.49
2018-09-20T07:52:48.752Z,21.51
2018-09-20T07:53:48.817Z,21.55
2018-09-20T07:54:48.744Z,21.58
2018-09-20T07:55:48.740Z,21.56
2018-09-20T07:56:48.796Z,21.70
2018-09-20T07:57:48.726Z,21.74
2018-09-20T07:58:48.726Z,21.77
2018-09-20T07:59:48.718Z,21.75
2018-09-20T08:00:48.713Z,21.83
2018-09-20T08:01:48.723Z,21.77
2018-09-20T08:02:48.703Z,21.75
2018-09-20T08:03:48.699Z,21.81
2018-09-20T08:04:48.695Z,21.96
2018-09-20T08:05:48.689Z,21.96
2018-09-20T08:06:48.691Z,22.02
2018-09-20T08:07:48.681Z,22.05
2018-09-20T08:08:48.679Z,22.08
2018-09-20T08:09:48.672Z,22.15
2018-09-20T08:10:48.667Z,22.19
2018-09-20T08:11:48.662Z,22.30
2018-09-20T08:12:48.717Z,22.23
2018-09-20T08:13:48.662Z,22.06
2018-09-20T08:14:48.655Z,22.12
2018-09-20T08:15:48.651Z,22.23
2018-09-20T08:16:48.642Z,22.20
2018-09-20T08:17:48.639Z,22.29
2018-09-20T08:18:48.632Z,22.20
2018-09-20T08:19:48.628Z,22.23
2018-09-20T08:20:48.630Z,22.38
2018-09-20T08:21:48.625Z,22.36
2018-09-20T08:22:48.615Z,22.48
2018-09-20T08:23:48.614Z,22.66
2018-09-20T08:24:48.609Z,22.72
2018-09-20T08:25:48.605Z,22.84
2018-09-20T08:26:48.598Z,22.78
2018-09-20T08:27:48.599Z,22.81
2018-09-20T08:28:48.590Z,22.81
2018-09-20T08:29:48.595Z,22.93
2018-09-20T08:30:48.589Z,22.97
2018-09-20T08:31:48.585Z,22.96
2018-09-20T08:32:48.578Z,22.97
2018-09-20T08:33:48.569Z,22.96
2018-09-20T08:34:48.565Z,23.09
2018-09-20T08:35:48.563Z,23.09
2018-09-20T08:36:48.559Z,23.07
2018-09-20T08:37:48.626Z,23.15
2018-09-20T08:38:48.549Z,23.26
2018-09-20T08:39:48.555Z,23.19
2018-09-20T08:40:48.542Z,23.25
2018-09-20T08:41:48.538Z,23.34
2018-09-20T08:42:48.538Z,23.35
2018-09-20T08:43:48.531Z,23.53
2018-09-20T08:44:48.527Z,23.53
2018-09-20T08:45:48.523Z,23.62
2018-09-20T08:46:48.525Z,23.68
2018-09-20T08:47:48.517Z,23.74
2018-09-20T08:48:48.518Z,23.81
2018-09-20T08:49:48.508Z,23.78
2018-09-20T08:50:48.507Z,23.93
2018-09-20T08:51:48.508Z,23.86
2018-09-20T08:52:48.501Z,23.99
2018-09-20T08:53:48.495Z,24.09
2018-09-20T08:54:48.492Z,24.19
2018-09-20T08:55:48.491Z,24.12
2018-09-20T08:56:48.547Z,24.18
2018-09-20T08:57:48.486Z,24.21
2018-09-20T08:58:48.486Z,24.18
2018-09-20T08:59:48.474Z,24.21
2018-09-20T09:00:48.472Z,24.16
2018-09-20T09:01:48.470Z,24.23
2018-09-20T09:02:48.471Z,24.30
2018-09-20T09:03:48.462Z,24.34
2018-09-20T09:04:48.466Z,24.36
2018-09-20T09:05:48.455Z,24.30
2018-09-20T09:06:48.460Z,24.44
2018-09-20T09:07:48.452Z,24.42
2018-09-20T09:08:48.456Z,24.56
2018-09-20T09:09:48.443Z,24.60
2018-09-20T09:10:48.442Z,24.63
2018-09-20T09:11:48.458Z,24.75
2018-09-20T09:12:48.439Z,24.70
2018-09-20T09:13:48.471Z,24.86
2018-09-20T09:14:48.428Z,24.83
2018-09-20T09:15:48.430Z,24.92
2018-09-20T09:16:48.428Z,24.90
2018-09-20T09:17:48.418Z,24.93
2018-09-20T09:18:48.421Z,25.02
2018-09-20T09:19:48.416Z,25.02
2018-09-20T09:20:48.411Z,24.94
2018-09-20T09:21:48.407Z,25.04
2018-09-20T09:22:48.404Z,24.97
2018-09-20T09:23:48.402Z,24.99
2018-09-20T09:24:48.400Z,24.94
2018-09-20T09:25:48.398Z,25.02
2018-09-20T09:26:48.396Z,25.07
2018-09-20T09:27:48.390Z,25.05
2018-09-20T09:28:48.394Z,25.14
2018-09-20T09:29:48.385Z,25.22
2018-09-20T09:30:48.383Z,25.24
2018-09-20T09:31:48.380Z,25.24
2018-09-20T09:32:48.379Z,25.34
2018-09-20T09:33:48.374Z,25.35
2018-09-20T09:34:48.373Z,25.42
2018-09-20T09:35:48.371Z,25.44
2018-09-20T09:36:48.368Z,25.46
2018-09-20T09:37:48.365Z,25.45
2018-09-20T09:38:48.363Z,25.46
2018-09-20T09:39:48.367Z,25.53
2018-09-20T09:40:48.359Z,25.45
2018-09-20T09:41:48.358Z,25.57
2018-09-20T09:42:48.354Z,25.53
2018-09-20T09:43:48.354Z,25.54
2018-09-20T09:44:48.349Z,25.56
2018-09-20T09:45:48.348Z,25.49
2018-09-20T09:46:48.348Z,25.61
2018-09-20T09:47:48.342Z,25.60
2018-09-20T09:48:48.340Z,25.54
2018-09-20T09:49:48.343Z,25.44
2018-09-20T09:50:48.337Z,25.41
2018-09-20T09:51:48.333Z,25.53
2018-09-20T09:52:48.336Z,25.54
2018-09-20T09:53:48.329Z,25.56
2018-09-20T09:54:48.408Z,25.63
2018-09-20T09:55:48.329Z,25.69
2018-09-20T09:56:48.328Z,25.71
2018-09-20T09:57:48.321Z,25.78
2018-09-20T09:58:48.319Z,25.74
2018-09-20T09:59:48.381Z,25.74
2018-09-20T10:00:48.320Z,25.83
2018-09-20T10:01:48.315Z,25.89
2018-09-20T10:02:48.316Z,25.86
2018-09-20T10:03:48.305Z,25.86
2018-09-20T10:04:48.309Z,25.91
2018-09-20T10:05:48.307Z,25.96
2018-09-20T10:06:48.354Z,25.93
2018-09-20T10:07:48.300Z,26.01
2018-09-20T10:08:48.296Z,25.93
2018-09-20T10:09:48.293Z,26.04
2018-09-20T10:10:48.299Z,26.12
2018-09-20T10:11:48.290Z,26.19
2018-09-20T10:12:48.288Z,26.21
2018-09-20T10:13:48.339Z,26.23
2018-09-20T10:14:48.286Z,26.36
2018-09-20T10:15:48.285Z,26.21
2018-09-20T10:16:48.285Z,26.03
2018-09-20T10:17:48.286Z,25.98
2018-09-20T10:18:48.275Z,25.96
2018-09-20T10:19:48.296Z,26.00
2018-09-20T10:20:48.276Z,25.98
2018-09-20T10:21:48.270Z,26.01
2018-09-20T10:22:48.269Z,26.17
2018-09-20T10:23:48.331Z,26.20
2018-09-20T10:24:48.372Z,26.29
2018-09-20T10:25:48.265Z,26.38
2018-09-20T10:26:48.267Z,26.44
2018-09-20T10:27:48.271Z,26.54
2018-09-20T10:28:48.258Z,26.56
2018-09-20T10:29:48.256Z,26.51
2018-09-20T10:30:48.254Z,26.49
2018-09-20T10:31:48.259Z,26.53
2018-09-20T10:32:48.252Z,26.60
2018-09-20T10:33:48.249Z,26.69
2018-09-20T10:34:48.248Z,26.72
2018-09-20T10:35:48.251Z,26.75
2018-09-20T10:36:48.246Z,26.81
2018-09-20T10:37:48.244Z,26.78
2018-09-20T10:38:48.242Z,26.87
2018-09-20T10:39:48.244Z,26.86
2018-09-20T10:40:48.245Z,26.78
2018-09-20T10:41:48.243Z,26.86
2018-09-20T10:42:48.236Z,26.78
2018-09-20T10:43:48.240Z,26.72
2018-09-20T10:44:48.233Z,26.65
2018-09-20T10:45:48.232Z,26.81
2018-09-20T10:46:48.231Z,26.86
2018-09-20T10:47:48.329Z,26.93
2018-09-20T10:48:48.228Z,26.98
2018-09-20T10:49:48.226Z,27.03
2018-09-20T10:50:48.230Z,27.02
2018-09-20T10:51:48.224Z,27.08
2018-09-20T10:52:48.323Z,27.15
2018-09-20T10:53:48.221Z,27.06
2018-09-20T10:54:48.224Z,27.06
2018-09-20T10:55:48.219Z,27.09
2018-09-20T10:56:48.220Z,27.06
2018-09-20T10:57:48.219Z,27.12
2018-09-20T10:58:48.222Z,27.25
2018-09-20T10:59:48.220Z,27.39
2018-09-20T11:00:48.212Z,27.30
2018-09-20T11:01:48.211Z,27.03
2018-09-20T11:02:48.254Z,26.73
2018-09-20T11:03:48.212Z,26.75
2018-09-20T11:04:48.207Z,26.88
2018-09-20T11:05:48.206Z,26.93
2018-09-20T11:06:48.209Z,27.11
2018-09-20T11:07:48.208Z,27.05
2018-09-20T11:08:48.204Z,27.06
2018-09-20T11:09:48.209Z,27.18
2018-09-20T11:10:48.215Z,27.05
2018-09-20T11:11:48.205Z,27.15
2018-09-20T11:12:48.201Z,27.18
2018-09-20T11:13:48.201Z,27.30
2018-09-20T11:14:48.199Z,27.33
2018-09-20T11:15:48.296Z,27.27
2018-09-20T11:16:48.193Z,27.24
2018-09-20T11:17:48.195Z,27.30
2018-09-20T11:18:48.190Z,27.28
2018-09-20T11:19:48.191Z,27.21
2018-09-20T11:20:48.192Z,27.28
2018-09-20T11:21:48.190Z,27.33
2018-09-20T11:22:48.194Z,27.38
2018-09-20T11:23:48.187Z,27.45
2018-09-20T11:24:48.185Z,27.40
2018-09-20T11:25:48.233Z,27.28
2018-09-20T11:26:48.181Z,27.18
2018-09-20T11:27:48.183Z,27.18
2018-09-20T11:28:48.180Z,27.31
2018-09-20T11:29:48.177Z,27.42
2018-09-20T11:30:48.177Z,27.58
2018-09-20T11:31:48.179Z,27.62
2018-09-20T11:32:48.179Z,27.63
2018-09-20T11:33:48.173Z,27.63
2018-09-20T11:34:48.174Z,27.81
2018-09-20T11:35:48.174Z,27.86
2018-09-20T11:36:48.177Z,27.83
2018-09-20T11:37:48.173Z,27.84
2018-09-20T11:38:48.172Z,27.98
2018-09-20T11:39:48.171Z,28.01
2018-09-20T11:40:48.170Z,27.99
2018-09-20T11:41:48.168Z,28.11
2018-09-20T11:42:48.169Z,28.23
2018-09-20T11:43:48.171Z,28.23
2018-09-20T11:44:48.168Z,28.28
2018-09-20T11:45:48.169Z,28.38
2018-09-20T11:46:48.163Z,28.50
2018-09-20T11:47:48.161Z,28.42
2018-09-20T11:48:48.168Z,28.45
2018-09-20T11:49:48.165Z,28.39
2018-09-20T11:50:48.166Z,28.43
2018-09-20T11:51:48.165Z,28.43
2018-09-20T11:52:48.159Z,28.48
2018-09-20T11:53:48.158Z,28.48
2018-09-20T11:54:48.164Z,28.42
2018-09-20T11:55:48.162Z,28.43
2018-09-20T11:56:48.157Z,28.40
2018-09-20T11:57:48.162Z,28.48
2018-09-20T11:58:48.156Z,28.52
2018-09-20T11:59:48.155Z,28.55
2018-09-20T12:00:48.159Z,28.60
2018-09-20T12:01:48.177Z,28.57
2018-09-20T12:02:48.154Z,28.60
2018-09-20T12:03:48.154Z,28.54
2018-09-20T12:04:48.154Z,28.50
2018-09-20T12:05:48.159Z,28.54
2018-09-20T12:06:48.157Z,28.58
2018-09-20T12:07:48.153Z,28.54
2018-09-20T12:08:48.154Z,28.54
2018-09-20T12:09:48.156Z,28.61
2018-09-20T12:10:48.152Z,28.77
2018-09-20T12:11:48.158Z,28.77
2018-09-20T12:12:48.153Z,28.83
2018-09-20T12:13:48.151Z,28.77
2018-09-20T12:14:48.158Z,28.79
2018-09-20T12:15:48.155Z,28.89
2018-09-20T12:16:48.155Z,28.97
2018-09-20T12:17:48.152Z,28.87
2018-09-20T12:18:48.150Z,28.80
2018-09-20T12:19:48.204Z,28.85
2018-09-20T12:20:48.152Z,28.74
2018-09-20T12:21:48.153Z,28.89
2018-09-20T12:22:48.153Z,28.87
2018-09-20T12:23:48.150Z,29.03
2018-09-20T12:24:48.157Z,29.02
2018-09-20T12:25:48.157Z,29.10
2018-09-20T12:26:48.151Z,29.11
2018-09-20T12:27:48.151Z,29.05
2018-09-20T12:28:48.155Z,29.08
2018-09-20T12:29:48.150Z,29.18
2018-09-20T12:30:48.154Z,29.25
2018-09-20T12:31:48.172Z,29.18
2018-09-20T12:32:48.180Z,29.17
2018-09-20T12:33:48.158Z,29.23
2018-09-20T12:34:48.154Z,29.25
2018-09-20T12:35:48.329Z,29.27
2018-09-20T12:36:48.152Z,29.25
2018-09-20T12:37:48.151Z,29.32
2018-09-20T12:38:48.175Z,29.29
2018-09-20T12:39:48.158Z,29.27
2018-09-20T12:40:48.156Z,29.30
2018-09-20T12:41:48.155Z,29.21
2018-09-20T12:42:48.301Z,29.23
2018-09-20T12:43:48.154Z,29.11
2018-09-20T12:44:48.160Z,29.14
2018-09-20T12:45:48.153Z,29.18
2018-09-20T12:46:48.160Z,29.17
2018-09-20T12:47:48.154Z,29.21
2018-09-20T12:48:48.156Z,29.27
2018-09-20T12:49:48.161Z,29.30
2018-09-20T12:50:48.159Z,29.30
2018-09-20T12:51:48.156Z,29.33
2018-09-20T12:52:48.162Z,29.37